Aviation Digital Data Service (ADDS)

Output produced by TAFs form (1739 UTC 22 July 2014)
found at http://aviationweather.gov/adds/tafs/
 
KGJT 221720Z 2218/2318 15008KT P6SM SKC 
     FM222000 30008KT P6SM SKC 
     FM230300 04005KT P6SM SKC 
     FM230700 12010KT P6SM SCT200